Airport View

Enter AWOS ICAO identifier for current METAR.

ex. KFNL

KVPS 181201Z AUTO 10014KT 10SM OVC014 14/11 A3030 RMK AO2 SLP267 $

18 Jan 2020 12:59

Other Area AWOS: KDTS - KHRT - KEGI - KCEW

TAF KVPS 181000Z 1810/1916 11012G16KT 9999 SCT008 BKN020 OVC075 QNH3032INS BECMG 1811/1812 11012G18KT 9999 OVC014 QNH3032INS BECMG 1817/1818 13013G22KT 9000 VCSH SCT014 BKN022 OVC050 QNH3018INS BECMG 1820/1821 15013G18KT 8000 -SHRA BKN014 OVC025 QNH3015INS WND 18013KT AFT 1903 BECMG 1906/1907 24013KT 9999 NSW SCT014 OVC025 QNH3014INS BECMG 1909/1910 32012G18KT 9999 SCT030 BKN100 QNH3012INS TX21/1821Z TN12/1811Z